createdAt,value
2019-05-03T00:02:27.574Z,52.43
2019-05-03T00:05:17.902Z,52.28
2019-05-03T00:07:52.610Z,52.08
2019-05-03T00:10:23.440Z,52.41
2019-05-03T00:12:54.177Z,51.86
2019-05-03T00:15:36.536Z,52.39
2019-05-03T00:18:08.352Z,52.44
2019-05-03T00:20:41.963Z,52.47
2019-05-03T00:23:12.609Z,52.70
2019-05-03T00:25:43.592Z,52.05
2019-05-03T00:28:14.571Z,52.05
2019-05-03T00:30:47.680Z,52.38
2019-05-03T00:33:19.155Z,52.47
2019-05-03T00:36:09.054Z,52.20
2019-05-03T00:38:41.976Z,52.41
2019-05-03T00:41:14.460Z,52.52
2019-05-03T00:43:45.886Z,52.57
2019-05-03T00:46:16.508Z,53.07
2019-05-03T00:48:48.076Z,52.63
2019-05-03T00:51:22.467Z,52.43
2019-05-03T00:53:54.321Z,52.46
2019-05-03T00:56:26.247Z,52.45
2019-05-03T00:58:58.864Z,52.97
2019-05-03T01:01:32.171Z,53.32
2019-05-03T01:04:02.487Z,52.88
2019-05-03T01:06:32.674Z,52.84
2019-05-03T01:09:05.770Z,52.78
2019-05-03T01:11:37.251Z,53.43
2019-05-03T01:14:08.726Z,52.91
2019-05-03T01:16:40.226Z,52.77
2019-05-03T01:19:13.296Z,52.26
2019-05-03T01:21:45.646Z,52.68
2019-05-03T01:24:18.622Z,53.08
2019-05-03T01:26:52.458Z,52.60
2019-05-03T01:29:22.882Z,52.76
2019-05-03T01:31:53.898Z,52.66
2019-05-03T01:34:25.272Z,52.34
2019-05-03T01:36:57.258Z,52.51
2019-05-03T01:39:28.377Z,52.37
2019-05-03T01:42:00.221Z,53.01
2019-05-03T01:44:32.611Z,52.98
2019-05-03T01:47:05.659Z,52.48
2019-05-03T01:49:45.180Z,52.83
2019-05-03T01:52:26.285Z,52.55
2019-05-03T01:54:58.957Z,52.67
2019-05-03T01:57:29.227Z,52.53
2019-05-03T02:00:02.679Z,52.82
2019-05-03T02:02:42.004Z,52.44
2019-05-03T02:05:42.898Z,52.51
2019-05-03T02:08:14.239Z,52.37
2019-05-03T02:10:46.026Z,52.18
2019-05-03T02:13:16.750Z,52.19
2019-05-03T02:15:48.833Z,51.90
2019-05-03T02:18:19.381Z,52.28
2019-05-03T02:20:49.576Z,52.17
2019-05-03T02:23:23.644Z,51.78
2019-05-03T02:25:59.274Z,52.49
2019-05-03T02:28:32.682Z,52.54
2019-05-03T02:31:04.495Z,52.05
2019-05-03T02:33:37.015Z,52.29
2019-05-03T02:36:08.845Z,52.45
2019-05-03T02:38:42.683Z,52.27
2019-05-03T02:41:13.531Z,51.97
2019-05-03T02:43:51.479Z,51.80
2019-05-03T02:46:36.086Z,51.76
2019-05-03T02:49:19.096Z,52.63
2019-05-03T02:51:49.580Z,52.52
2019-05-03T02:54:19.869Z,52.79
2019-05-03T02:56:50.546Z,52.24
2019-05-03T02:59:20.757Z,52.62
2019-05-03T03:01:52.003Z,52.22
2019-05-03T03:04:25.988Z,52.08
2019-05-03T03:06:59.430Z,51.97
2019-05-03T03:09:30.030Z,51.67
2019-05-03T03:12:06.078Z,51.97
2019-05-03T03:14:37.566Z,51.64
2019-05-03T03:17:12.358Z,51.23
2019-05-03T03:19:46.744Z,51.66
2019-05-03T03:22:20.912Z,51.50
2019-05-03T03:24:56.077Z,51.57
2019-05-03T03:27:29.096Z,50.24
2019-05-03T03:30:28.954Z,49.94
2019-05-03T03:33:01.230Z,50.08
2019-05-03T03:35:38.140Z,50.32
2019-05-03T03:38:08.916Z,51.04
2019-05-03T03:40:45.336Z,51.78
2019-05-03T03:43:17.906Z,51.57
2019-05-03T03:45:51.225Z,52.11
2019-05-03T03:48:26.644Z,51.47
2019-05-03T03:50:59.316Z,51.76
2019-05-03T03:53:35.424Z,51.81
2019-05-03T03:56:05.744Z,51.32
2019-05-03T03:58:37.615Z,51.87
2019-05-03T04:01:07.827Z,52.00
2019-05-03T04:03:40.797Z,51.98
2019-05-03T04:06:15.263Z,52.03
2019-05-03T04:08:45.689Z,52.45
2019-05-03T04:11:16.493Z,52.45
2019-05-03T04:13:47.693Z,52.53
2019-05-03T04:16:40.379Z,52.08
2019-05-03T04:19:19.440Z,52.06
2019-05-03T04:21:51.191Z,52.10
2019-05-03T04:24:25.679Z,52.64
2019-05-03T04:27:18.682Z,52.36
2019-05-03T04:29:39.763Z,52.21
2019-05-03T04:32:11.333Z,52.47
2019-05-03T04:34:45.656Z,52.45
2019-05-03T04:37:16.565Z,51.90
2019-05-03T04:39:47.373Z,51.96
2019-05-03T04:42:18.703Z,52.21
2019-05-03T04:44:48.927Z,51.71
2019-05-03T04:47:19.692Z,52.08
2019-05-03T04:49:52.158Z,51.93
2019-05-03T04:52:25.534Z,52.02
2019-05-03T04:54:57.291Z,52.13
2019-05-03T04:57:39.715Z,52.27
2019-05-03T05:00:00.691Z,52.46
2019-05-03T05:02:35.408Z,51.84
2019-05-03T05:05:09.755Z,51.82
2019-05-03T05:07:40.259Z,52.17
2019-05-03T05:10:15.271Z,52.49
2019-05-03T05:12:46.962Z,52.08
2019-05-03T05:15:19.181Z,51.53
2019-05-03T05:18:16.018Z,51.68
2019-05-03T05:20:55.852Z,51.87
2019-05-03T05:23:27.037Z,51.46
2019-05-03T05:26:05.566Z,51.33
2019-05-03T05:28:44.944Z,50.90
2019-05-03T05:31:15.424Z,51.21
2019-05-03T05:33:46.302Z,51.28
2019-05-03T05:36:17.759Z,51.56
2019-05-03T05:38:48.556Z,51.17
2019-05-03T05:41:19.271Z,51.46
2019-05-03T05:43:50.819Z,51.37
2019-05-03T05:46:24.938Z,50.86
2019-05-03T05:48:55.679Z,50.45
2019-05-03T05:51:27.495Z,50.83
2019-05-03T05:54:01.793Z,50.77
2019-05-03T05:56:47.209Z,51.16
2019-05-03T05:59:25.735Z,50.62
2019-05-03T06:02:04.861Z,50.39
2019-05-03T06:04:35.762Z,50.25
2019-05-03T06:07:28.500Z,49.88
2019-05-03T06:10:09.592Z,50.36
2019-05-03T06:12:46.254Z,50.35
2019-05-03T06:15:36.568Z,49.90
2019-05-03T06:18:14.607Z,49.33
2019-05-03T06:21:04.640Z,47.58
2019-05-03T06:23:56.407Z,47.01
2019-05-03T06:26:56.305Z,46.29
2019-05-03T06:29:28.684Z,46.11
2019-05-03T06:32:25.372Z,46.14
2019-05-03T06:34:56.730Z,45.42
2019-05-03T06:37:31.002Z,45.85
2019-05-03T06:40:06.163Z,44.55
2019-05-03T06:42:51.233Z,45.36
2019-05-03T06:45:14.759Z,44.86
2019-05-03T06:47:49.860Z,45.56
2019-05-03T06:50:27.233Z,44.49
2019-05-03T06:52:54.786Z,44.43
2019-05-03T06:55:28.097Z,44.65
2019-05-03T06:58:05.157Z,44.43
2019-05-03T07:00:55.360Z,43.78
2019-05-03T07:03:58.510Z,44.21
2019-05-03T07:06:40.322Z,42.97
2019-05-03T07:09:30.371Z,43.57
2019-05-03T07:12:01.996Z,43.20
2019-05-03T07:14:32.477Z,41.96
2019-05-03T07:17:24.864Z,40.49
2019-05-03T07:19:55.614Z,40.63
2019-05-03T07:22:28.324Z,40.59
2019-05-03T07:25:01.052Z,40.55
2019-05-03T07:27:34.973Z,39.48
2019-05-03T07:30:09.822Z,39.46
2019-05-03T07:32:44.840Z,39.60
2019-05-03T07:35:16.548Z,39.70
2019-05-03T07:37:48.832Z,40.48
2019-05-03T07:40:21.453Z,40.11
2019-05-03T07:42:52.746Z,39.09
2019-05-03T07:45:27.502Z,39.13
2019-05-03T07:47:59.138Z,39.18
2019-05-03T07:50:33.260Z,38.35
2019-05-03T07:53:05.551Z,38.21
2019-05-03T07:56:02.512Z,38.47
2019-05-03T07:58:35.128Z,37.67
2019-05-03T08:01:10.838Z,38.86
2019-05-03T08:03:42.191Z,37.50
2019-05-03T08:06:14.780Z,38.29
2019-05-03T08:08:45.458Z,38.18
2019-05-03T08:11:16.229Z,37.08
2019-05-03T08:13:47.716Z,38.35
2019-05-03T08:16:21.696Z,36.14
2019-05-03T08:18:52.552Z,36.73
2019-05-03T08:21:25.577Z,35.74
2019-05-03T08:23:56.194Z,36.23
2019-05-03T08:26:28.345Z,35.33
2019-05-03T08:29:14.823Z,35.01
2019-05-03T08:31:46.781Z,34.81
2019-05-03T08:34:30.332Z,36.08
2019-05-03T08:37:06.781Z,35.61
2019-05-03T08:39:44.881Z,34.96
2019-05-03T08:42:22.848Z,35.60
2019-05-03T08:44:58.188Z,35.71
2019-05-03T08:47:28.420Z,36.16
2019-05-03T08:49:59.602Z,32.40
2019-05-03T08:52:34.819Z,33.83
2019-05-03T08:55:10.350Z,34.11
2019-05-03T08:57:45.863Z,33.15
2019-05-03T09:00:18.260Z,32.02
2019-05-03T09:02:49.730Z,32.15
2019-05-03T09:05:25.041Z,31.13
2019-05-03T09:07:57.071Z,31.69
2019-05-03T09:10:45.753Z,31.99
2019-05-03T09:13:21.305Z,32.53
2019-05-03T09:15:55.198Z,31.46
2019-05-03T09:18:28.802Z,31.85
2019-05-03T09:20:58.968Z,31.88
2019-05-03T09:23:39.932Z,31.77
2019-05-03T09:26:11.064Z,31.75
2019-05-03T09:28:42.928Z,31.87
2019-05-03T09:31:17.787Z,31.37
2019-05-03T09:33:55.019Z,31.66
2019-05-03T09:36:39.091Z,31.38
2019-05-03T09:39:11.584Z,32.02
2019-05-03T09:41:44.889Z,32.11
2019-05-03T09:44:17.053Z,32.47
2019-05-03T09:46:49.036Z,30.73
2019-05-03T09:49:20.739Z,30.82
2019-05-03T09:51:54.906Z,31.47
2019-05-03T09:54:36.268Z,31.11
2019-05-03T09:57:06.874Z,30.91
2019-05-03T09:59:38.075Z,32.60
2019-05-03T10:02:15.156Z,32.64
2019-05-03T10:05:06.440Z,31.96
2019-05-03T10:07:56.335Z,33.07
2019-05-03T10:10:51.021Z,32.52
2019-05-03T10:13:27.206Z,31.85
2019-05-03T10:16:05.821Z,32.03
2019-05-03T10:18:55.339Z,32.20
2019-05-03T10:21:29.045Z,30.68
2019-05-03T10:24:06.780Z,32.74
2019-05-03T10:26:41.601Z,31.32
2019-05-03T10:29:11.956Z,30.76
2019-05-03T10:31:56.485Z,30.83
2019-05-03T10:34:35.698Z,30.18
2019-05-03T10:37:09.257Z,29.43
2019-05-03T10:39:45.426Z,30.85
2019-05-03T10:42:18.394Z,31.26
2019-05-03T10:44:49.022Z,29.81
2019-05-03T10:47:19.689Z,29.04
2019-05-03T10:49:51.442Z,29.04
2019-05-03T10:52:28.068Z,27.35
2019-05-03T10:54:59.652Z,27.79
2019-05-03T10:57:32.982Z,29.85
2019-05-03T11:00:05.074Z,28.16
2019-05-03T11:02:51.777Z,28.45
2019-05-03T11:05:24.325Z,27.32
2019-05-03T11:07:58.701Z,27.32
2019-05-03T11:10:30.141Z,27.57
2019-05-03T11:13:02.729Z,27.57
2019-05-03T11:15:35.075Z,27.05
2019-05-03T11:18:06.889Z,27.85
2019-05-03T11:20:39.780Z,27.85
2019-05-03T11:23:10.330Z,27.27
2019-05-03T11:25:45.237Z,27.82
2019-05-03T11:28:26.174Z,26.92
2019-05-03T11:31:02.396Z,26.92
2019-05-03T11:33:39.377Z,27.71
2019-05-03T11:36:20.022Z,26.61
2019-05-03T11:38:52.047Z,24.98
2019-05-03T11:41:32.017Z,26.45
2019-05-03T11:44:22.317Z,25.00
2019-05-03T11:46:54.961Z,24.51
2019-05-03T11:49:28.249Z,24.89
2019-05-03T11:51:59.815Z,25.02
2019-05-03T11:54:32.342Z,26.09
2019-05-03T11:57:10.697Z,22.94
2019-05-03T11:59:45.238Z,22.90
2019-05-03T12:02:35.133Z,22.40
2019-05-03T12:05:11.680Z,22.99
2019-05-03T12:07:45.874Z,21.69
2019-05-03T12:10:36.885Z,23.06
2019-05-03T12:13:15.843Z,23.25
2019-05-03T12:15:52.373Z,23.04
2019-05-03T12:18:25.111Z,24.28
2019-05-03T12:20:59.388Z,22.38
2019-05-03T12:23:32.791Z,24.30
2019-05-03T12:26:10.895Z,23.55
2019-05-03T12:28:41.622Z,23.75
2019-05-03T12:31:29.559Z,23.58
2019-05-03T12:33:55.498Z,23.31
2019-05-03T12:36:27.163Z,21.53
2019-05-03T12:38:58.279Z,22.42
2019-05-03T12:41:30.483Z,20.43
2019-05-03T12:44:04.690Z,20.87
2019-05-03T12:46:35.459Z,22.39
2019-05-03T12:49:07.252Z,20.57
2019-05-03T12:51:40.903Z,22.40
2019-05-03T12:54:12.415Z,20.43
2019-05-03T12:56:50.864Z,20.68
2019-05-03T12:59:42.120Z,18.55
2019-05-03T13:02:19.247Z,19.39
2019-05-03T13:04:56.547Z,20.51
2019-05-03T13:07:36.678Z,20.16
2019-05-03T13:10:09.726Z,20.72
2019-05-03T13:12:52.497Z,20.72
2019-05-03T13:15:18.271Z,22.57
2019-05-03T13:17:50.779Z,20.78
2019-05-03T13:20:21.331Z,20.24
2019-05-03T13:22:52.902Z,20.14
2019-05-03T13:25:25.925Z,19.82
2019-05-03T13:27:58.847Z,20.96
2019-05-03T13:30:29.401Z,21.56
2019-05-03T13:33:00.842Z,21.69
2019-05-03T13:35:32.713Z,21.23
2019-05-03T13:38:04.159Z,21.92
2019-05-03T13:40:36.030Z,22.94
2019-05-03T13:43:08.301Z,23.55
2019-05-03T13:45:40.096Z,23.89
2019-05-03T13:48:12.357Z,23.12
2019-05-03T13:50:44.609Z,23.36
2019-05-03T13:53:16.241Z,23.72
2019-05-03T13:55:49.600Z,24.39
2019-05-03T13:58:21.478Z,23.93
2019-05-03T14:00:54.721Z,24.53
2019-05-03T14:03:24.777Z,24.72
2019-05-03T14:05:57.865Z,25.12
2019-05-03T14:08:30.795Z,24.78
2019-05-03T14:11:01.383Z,24.82
2019-05-03T14:13:31.566Z,24.64
2019-05-03T14:16:05.488Z,25.29
2019-05-03T14:18:36.402Z,23.78
2019-05-03T14:21:34.468Z,26.15
2019-05-03T14:24:15.811Z,25.16
2019-05-03T14:26:46.900Z,25.68
2019-05-03T14:29:19.285Z,26.04
2019-05-03T14:31:54.548Z,26.16
2019-05-03T14:34:26.791Z,24.70
2019-05-03T14:36:57.683Z,25.65
2019-05-03T14:39:29.266Z,26.39
2019-05-03T14:42:00.792Z,25.28
2019-05-03T14:44:32.547Z,25.91
2019-05-03T14:47:05.835Z,26.91
2019-05-03T14:49:38.292Z,27.49
2019-05-03T14:52:08.585Z,28.16
2019-05-03T14:54:40.927Z,28.25
2019-05-03T14:57:32.042Z,27.75
2019-05-03T15:00:22.118Z,29.44
2019-05-03T15:03:02.040Z,30.05
2019-05-03T15:05:36.327Z,28.79
2019-05-03T15:08:07.988Z,29.64
2019-05-03T15:10:39.380Z,31.37
2019-05-03T15:13:11.312Z,30.20
2019-05-03T15:15:45.229Z,28.08
2019-05-03T15:18:20.461Z,29.57
2019-05-03T15:20:55.002Z,29.44
2019-05-03T15:23:27.089Z,29.72
2019-05-03T15:25:59.522Z,31.24
2019-05-03T15:28:31.205Z,32.13
2019-05-03T15:31:04.551Z,31.47
2019-05-03T15:33:37.734Z,31.24
2019-05-03T15:36:12.934Z,31.48
2019-05-03T15:38:45.018Z,30.30
2019-05-03T15:41:15.898Z,30.99
2019-05-03T15:44:20.974Z,31.30
2019-05-03T15:47:16.063Z,31.88
2019-05-03T15:49:47.651Z,34.31
2019-05-03T15:52:19.108Z,34.06
2019-05-03T15:54:50.072Z,35.35
2019-05-03T15:57:20.976Z,36.17
2019-05-03T15:59:52.251Z,36.39
2019-05-03T16:02:24.653Z,36.26
2019-05-03T16:04:58.662Z,36.84
2019-05-03T16:10:38.502Z,36.65
2019-05-03T16:13:10.797Z,37.67
2019-05-03T16:15:41.831Z,36.70
2019-05-03T16:18:14.869Z,37.41
2019-05-03T16:20:48.271Z,37.85
2019-05-03T16:23:18.850Z,36.30
2019-05-03T16:25:50.289Z,37.29
2019-05-03T16:28:31.402Z,37.79
2019-05-03T16:31:12.440Z,37.21
2019-05-03T16:33:46.969Z,37.71
2019-05-03T16:36:24.149Z,39.44
2019-05-03T16:38:57.779Z,39.38
2019-05-03T16:41:31.795Z,38.07
2019-05-03T16:44:05.166Z,37.33
2019-05-03T16:46:35.893Z,39.18
2019-05-03T16:49:06.699Z,38.77
2019-05-03T16:51:40.926Z,39.21
2019-05-03T16:54:11.449Z,39.29
2019-05-03T16:56:44.540Z,38.49
2019-05-03T16:59:17.463Z,39.04
2019-05-03T17:01:48.789Z,38.77
2019-05-03T17:04:49.390Z,38.59
2019-05-03T17:07:45.025Z,38.21
2019-05-03T17:10:27.135Z,38.95
2019-05-03T17:13:02.287Z,38.50
2019-05-03T17:15:35.300Z,38.79
2019-05-03T17:18:06.407Z,38.99
2019-05-03T17:20:38.758Z,38.33
2019-05-03T17:23:11.092Z,38.92
2019-05-03T17:25:44.580Z,38.04
2019-05-03T17:28:16.519Z,39.24
2019-05-03T17:30:51.314Z,39.49
2019-05-03T17:33:22.431Z,38.00
2019-05-03T17:35:56.072Z,38.55
2019-05-03T17:38:30.367Z,39.94
2019-05-03T17:41:29.104Z,39.48
2019-05-03T17:44:17.169Z,38.50
2019-05-03T17:46:48.087Z,40.26
2019-05-03T17:49:30.907Z,39.66
2019-05-03T17:52:20.182Z,39.60
2019-05-03T17:55:05.042Z,39.30
2019-05-03T17:57:55.119Z,39.48
2019-05-03T18:01:01.945Z,39.54
2019-05-03T18:03:37.684Z,40.55
2019-05-03T18:06:39.061Z,40.34
2019-05-03T18:09:24.525Z,39.10
2019-05-03T18:11:57.660Z,38.78
2019-05-03T18:14:34.363Z,38.66
2019-05-03T18:17:08.717Z,39.31
2019-05-03T18:19:41.334Z,38.77
2019-05-03T18:22:16.614Z,39.95
2019-05-03T18:24:48.166Z,40.31
2019-05-03T18:27:25.050Z,40.13
2019-05-03T18:29:57.261Z,40.60
2019-05-03T18:32:40.691Z,39.78
2019-05-03T18:35:19.598Z,39.31
2019-05-03T18:37:59.160Z,38.93
2019-05-03T18:40:35.300Z,39.67
2019-05-03T18:43:14.984Z,39.98
2019-05-03T18:46:17.856Z,40.00
2019-05-03T18:48:50.021Z,39.71
2019-05-03T18:51:25.235Z,40.69
2019-05-03T18:53:56.514Z,40.63
2019-05-03T18:56:32.399Z,40.37
2019-05-03T18:59:10.297Z,40.65
2019-05-03T19:01:46.787Z,40.70
2019-05-03T19:04:34.323Z,40.45
2019-05-03T19:07:05.272Z,41.83
2019-05-03T19:10:01.144Z,41.27
2019-05-03T19:12:41.088Z,40.45
2019-05-03T19:15:17.931Z,40.73
2019-05-03T19:18:15.380Z,41.49
2019-05-03T19:20:49.918Z,41.07
2019-05-03T19:23:22.029Z,41.84
2019-05-03T19:26:00.526Z,41.53
2019-05-03T19:28:32.165Z,40.69
2019-05-03T19:31:05.447Z,42.19
2019-05-03T19:33:37.311Z,41.57
2019-05-03T19:36:10.719Z,41.37
2019-05-03T19:38:42.577Z,41.40
2019-05-03T19:41:16.305Z,41.20
2019-05-03T19:43:50.191Z,41.89
2019-05-03T19:46:24.804Z,41.53
2019-05-03T19:48:56.210Z,41.46
2019-05-03T19:51:29.380Z,41.42
2019-05-03T19:54:06.079Z,41.54
2019-05-03T19:56:41.505Z,41.62
2019-05-03T19:59:18.576Z,41.55
2019-05-03T20:02:04.575Z,41.69
2019-05-03T20:05:09.910Z,41.77
2019-05-03T20:08:05.158Z,41.34
2019-05-03T20:10:38.804Z,41.48
2019-05-03T20:13:10.755Z,42.18
2019-05-03T20:15:45.071Z,42.29
2019-05-03T20:18:28.701Z,42.29
2019-05-03T20:21:00.522Z,42.50
2019-05-03T20:23:33.507Z,42.73
2019-05-03T20:26:08.803Z,42.61
2019-05-03T20:28:39.788Z,43.76
2019-05-03T20:31:12.258Z,42.85
2019-05-03T20:33:45.734Z,44.11
2019-05-03T20:36:19.697Z,43.03
2019-05-03T20:38:55.908Z,43.70
2019-05-03T20:41:28.917Z,43.52
2019-05-03T20:47:39.890Z,43.75
2019-05-03T20:50:15.643Z,44.54
2019-05-03T20:52:49.013Z,44.74
2019-05-03T20:55:22.305Z,45.15
2019-05-03T20:57:57.694Z,45.14
2019-05-03T21:00:28.537Z,45.75
2019-05-03T21:02:59.800Z,46.54
2019-05-03T21:05:34.748Z,46.78
2019-05-03T21:08:06.983Z,47.26
2019-05-03T21:10:37.743Z,48.87
2019-05-03T21:13:09.809Z,47.68
2019-05-03T21:15:58.740Z,47.29
2019-05-03T21:18:55.514Z,47.35
2019-05-03T21:21:44.401Z,46.69
2019-05-03T21:24:25.544Z,47.14
2019-05-03T21:26:55.941Z,46.01
2019-05-03T21:29:34.622Z,47.02
2019-05-03T21:32:05.525Z,45.19
2019-05-03T21:34:45.191Z,46.12
2019-05-03T21:37:24.343Z,47.79
2019-05-03T21:39:54.912Z,46.77
2019-05-03T21:42:25.740Z,46.49
2019-05-03T21:45:00.403Z,46.85
2019-05-03T21:47:44.196Z,46.04
2019-05-03T21:50:17.660Z,47.16
2019-05-03T21:52:57.471Z,46.71
2019-05-03T21:55:30.539Z,47.49
2019-05-03T21:58:04.654Z,47.65
2019-05-03T22:00:51.840Z,46.94
2019-05-03T22:03:25.729Z,47.28
2019-05-03T22:05:58.082Z,47.16
2019-05-03T22:08:32.088Z,46.64
2019-05-03T22:11:05.356Z,46.87
2019-05-03T22:13:37.912Z,47.24
2019-05-03T22:16:28.079Z,46.60
2019-05-03T22:19:01.065Z,46.80
2019-05-03T22:21:39.045Z,47.50
2019-05-03T22:24:32.222Z,46.95
2019-05-03T22:27:09.788Z,48.23
2019-05-03T22:29:44.644Z,47.31
2019-05-03T22:32:18.409Z,47.96
2019-05-03T22:34:51.081Z,47.35
2019-05-03T22:37:24.845Z,47.68
2019-05-03T22:39:59.685Z,47.49
2019-05-03T22:42:30.258Z,48.40
2019-05-03T22:45:01.759Z,48.26
2019-05-03T22:47:36.746Z,48.39
2019-05-03T22:50:10.019Z,48.89
2019-05-03T22:52:45.689Z,49.69
2019-05-03T22:55:24.718Z,49.24
2019-05-03T22:58:05.185Z,49.23
2019-05-03T23:00:36.277Z,49.11
2019-05-03T23:03:09.444Z,49.20
2019-05-03T23:05:40.453Z,48.87
2019-05-03T23:08:29.346Z,48.95
2019-05-03T23:11:02.705Z,49.21
2019-05-03T23:13:33.448Z,48.58
2019-05-03T23:16:07.042Z,48.78
2019-05-03T23:18:37.630Z,48.88
2019-05-03T23:21:15.221Z,48.96
2019-05-03T23:23:51.725Z,48.97
2019-05-03T23:26:25.396Z,49.32
2019-05-03T23:28:59.382Z,50.40
2019-05-03T23:31:30.603Z,50.03
2019-05-03T23:34:01.057Z,50.43
2019-05-03T23:36:35.596Z,51.35
2019-05-03T23:39:11.761Z,50.14
2019-05-03T23:41:47.952Z,49.16
2019-05-03T23:44:20.750Z,49.28
2019-05-03T23:47:21.388Z,48.71
2019-05-03T23:49:55.371Z,49.30
2019-05-03T23:52:35.274Z,49.51
2019-05-03T23:55:15.830Z,49.43
2019-05-03T23:57:48.741Z,49.33
